createdAt,value
2022-12-24T00:00:39.458Z,12.40
2022-12-24T00:03:06.261Z,12.20
2022-12-24T00:05:33.043Z,12.30
2022-12-24T00:07:59.736Z,12.30
2022-12-24T00:10:26.404Z,12.20
2022-12-24T00:12:53.024Z,12.40
2022-12-24T00:15:19.670Z,12.30
2022-12-24T00:17:46.259Z,12.30
2022-12-24T00:20:13.055Z,12.20
2022-12-24T00:22:39.656Z,12.20
2022-12-24T00:25:06.792Z,12.20
2022-12-24T00:27:33.419Z,12.30
2022-12-24T00:30:00.016Z,12.20
2022-12-24T05:31:53.059Z,10.90
2022-12-24T05:34:31.577Z,11.00
2022-12-24T05:37:03.453Z,11.00
2022-12-24T05:39:33.139Z,11.00
2022-12-24T05:41:59.872Z,11.10
2022-12-24T05:44:26.608Z,11.20
2022-12-24T05:46:53.271Z,11.00
2022-12-24T05:49:20.011Z,10.80
2022-12-24T05:51:46.784Z,10.90
2022-12-24T05:54:13.549Z,10.90
2022-12-24T05:56:40.259Z,10.90
2022-12-24T05:59:07.020Z,10.80
2022-12-24T06:01:33.851Z,11.00
2022-12-24T06:04:00.669Z,10.90
2022-12-24T06:06:28.724Z,10.90
2022-12-24T06:08:56.829Z,10.80
2022-12-24T06:11:26.261Z,10.90
2022-12-24T06:13:53.853Z,10.80
2022-12-24T06:16:22.220Z,10.80
2022-12-24T06:18:49.227Z,10.80
2022-12-24T06:21:16.173Z,10.90
2022-12-24T06:23:45.241Z,10.90
2022-12-24T06:26:14.451Z,10.80
2022-12-24T06:28:41.439Z,10.80
2022-12-24T06:31:12.833Z,10.80
2022-12-24T06:33:39.987Z,10.80
2022-12-24T06:36:14.988Z,10.80
2022-12-24T06:38:41.765Z,10.80
2022-12-24T06:41:09.022Z,10.70
2022-12-24T06:43:35.906Z,10.70
2022-12-24T06:46:04.179Z,10.80
2022-12-24T06:48:31.323Z,10.80
2022-12-24T06:50:58.019Z,10.90
2022-12-24T06:53:24.683Z,10.80
2022-12-24T06:55:51.438Z,10.90
2022-12-24T06:58:18.247Z,10.80
2022-12-24T07:00:44.989Z,10.70
2022-12-24T07:03:12.022Z,10.60
2022-12-24T07:05:38.677Z,10.60
2022-12-24T07:08:05.519Z,10.70
2022-12-24T07:10:32.135Z,10.70
2022-12-24T07:12:58.855Z,10.70
2022-12-24T07:15:25.474Z,10.70
2022-12-24T07:17:52.228Z,10.80
2022-12-24T07:20:18.967Z,10.70
2022-12-24T07:22:45.568Z,10.60
2022-12-24T07:25:12.474Z,10.60
2022-12-24T07:27:39.687Z,10.90
2022-12-24T07:30:07.449Z,10.80
2022-12-24T07:32:34.355Z,10.90
2022-12-24T07:35:01.074Z,11.00
2022-12-24T07:37:27.741Z,10.70
2022-12-24T07:39:54.491Z,10.80
2022-12-24T07:42:22.311Z,10.80
2022-12-24T07:44:48.928Z,10.80
2022-12-24T07:47:15.833Z,10.70
2022-12-24T07:49:42.874Z,10.60
2022-12-24T07:52:09.580Z,10.70
2022-12-24T07:54:36.340Z,11.00
2022-12-24T07:57:03.143Z,10.70
2022-12-24T07:59:29.821Z,10.90
2022-12-24T08:01:56.700Z,11.00
2022-12-24T08:04:23.547Z,11.20
2022-12-24T08:06:50.238Z,11.10
2022-12-24T08:09:17.019Z,11.10
2022-12-24T08:11:51.330Z,11.30
2022-12-24T08:14:19.102Z,11.40
2022-12-24T08:16:45.905Z,11.60
2022-12-24T08:19:12.606Z,11.20
2022-12-24T08:21:39.332Z,11.40
2022-12-24T08:24:06.568Z,11.50
2022-12-24T08:26:33.247Z,11.50
2022-12-24T08:28:59.987Z,11.60
2022-12-24T08:31:26.783Z,11.30
2022-12-24T08:33:53.602Z,11.20
2022-12-24T08:36:20.477Z,10.90
2022-12-24T08:38:47.141Z,10.80
2022-12-24T08:41:13.906Z,10.80
2022-12-24T08:43:40.613Z,10.70
2022-12-24T08:46:55.257Z,10.50
2022-12-24T08:49:22.113Z,10.40
2022-12-24T08:52:17.894Z,10.60
2022-12-24T08:54:44.596Z,10.60
2022-12-24T08:57:11.366Z,10.50
2022-12-24T08:59:38.094Z,10.50
2022-12-24T09:02:04.900Z,10.60
2022-12-24T09:05:27.857Z,10.60
2022-12-24T09:07:54.641Z,10.60
2022-12-24T09:10:21.831Z,10.70
2022-12-24T09:12:51.641Z,10.60
2022-12-24T09:15:19.018Z,10.50
2022-12-24T09:17:54.664Z,10.50
2022-12-24T09:20:21.429Z,10.70
2022-12-24T09:22:49.326Z,10.70
2022-12-24T09:25:16.098Z,10.70
2022-12-24T09:28:15.052Z,10.70
2022-12-24T09:30:41.731Z,10.90
2022-12-24T09:33:08.372Z,11.20
2022-12-24T09:35:38.218Z,11.30
2022-12-24T09:38:04.900Z,10.90
2022-12-24T09:40:37.977Z,11.10
2022-12-24T09:43:20.653Z,11.00
2022-12-24T09:46:18.434Z,11.20
2022-12-24T09:48:49.262Z,11.20
2022-12-24T09:51:41.171Z,11.00
2022-12-24T09:54:18.867Z,11.20
2022-12-24T09:56:47.813Z,11.30
2022-12-24T09:59:45.646Z,11.10
2022-12-24T10:02:15.844Z,11.00
2022-12-24T10:04:46.018Z,10.80
2022-12-24T10:07:18.889Z,10.70
2022-12-24T10:10:03.720Z,10.70
2022-12-24T10:12:53.082Z,10.60
2022-12-24T10:15:41.079Z,10.60
2022-12-24T10:18:07.685Z,10.70
2022-12-24T10:20:56.781Z,10.50
2022-12-24T10:23:26.364Z,10.70
2022-12-24T10:26:02.043Z,10.70
2022-12-24T10:28:44.014Z,10.60
2022-12-24T10:31:11.366Z,10.80
2022-12-24T10:33:44.660Z,10.60
2022-12-24T10:36:18.659Z,10.70
2022-12-24T10:38:46.306Z,10.80
2022-12-24T10:41:14.867Z,10.60
2022-12-24T10:43:43.508Z,10.60
2022-12-24T10:46:21.391Z,10.90
2022-12-24T10:49:29.241Z,11.10
2022-12-24T10:51:57.833Z,11.00
2022-12-24T10:54:28.053Z,10.80
2022-12-24T10:57:02.792Z,10.80
2022-12-24T10:59:30.967Z,10.90
2022-12-24T11:01:59.114Z,10.90
2022-12-24T11:04:28.880Z,11.00
2022-12-24T11:07:07.112Z,11.10
2022-12-24T11:09:36.974Z,11.00
2022-12-24T11:12:09.409Z,11.00
2022-12-24T11:14:40.078Z,11.00
2022-12-24T11:17:07.123Z,11.00
2022-12-24T11:19:36.861Z,10.90
2022-12-24T11:22:06.917Z,10.80
2022-12-24T11:24:49.695Z,10.90
2022-12-24T11:27:42.158Z,10.80
2022-12-24T11:30:23.537Z,10.90
2022-12-24T11:33:11.617Z,11.00
2022-12-24T11:35:47.757Z,11.00
2022-12-24T11:38:23.786Z,10.80
2022-12-24T11:40:59.152Z,10.80
2022-12-24T11:43:44.288Z,10.80
2022-12-24T11:46:34.515Z,10.80
2022-12-24T11:49:15.945Z,10.80
2022-12-24T11:52:12.110Z,10.60
2022-12-24T11:54:56.618Z,10.60
2022-12-24T11:57:28.378Z,10.40
2022-12-24T11:59:55.102Z,10.40
2022-12-24T12:02:39.745Z,10.40
2022-12-24T12:05:28.687Z,10.50
2022-12-24T12:08:05.859Z,10.50
2022-12-24T12:10:39.876Z,10.60
2022-12-24T12:13:16.325Z,10.70
2022-12-24T12:16:01.514Z,10.70
2022-12-24T12:18:36.083Z,10.70
2022-12-24T12:21:09.995Z,10.70
2022-12-24T12:24:01.598Z,10.60
2022-12-24T12:26:30.079Z,10.70
2022-12-24T12:29:02.376Z,10.80
2022-12-24T12:31:37.023Z,10.90
2022-12-24T12:34:21.826Z,10.80
2022-12-24T12:36:54.217Z,10.60
2022-12-24T12:39:21.047Z,10.60
2022-12-24T12:41:59.007Z,10.70
2022-12-24T12:44:34.708Z,10.70
2022-12-24T12:47:31.563Z,10.60
2022-12-24T12:50:07.299Z,10.60
2022-12-24T12:52:55.331Z,10.80
2022-12-24T12:55:28.096Z,10.80
2022-12-24T12:58:00.754Z,11.00
2022-12-24T13:00:36.047Z,11.00
2022-12-24T13:03:37.999Z,10.90
2022-12-24T13:06:13.761Z,11.00
2022-12-24T13:08:43.490Z,11.00
2022-12-24T13:11:47.831Z,11.00
2022-12-24T13:14:47.392Z,10.90
2022-12-24T13:17:41.519Z,10.80
2022-12-24T13:20:24.225Z,10.90
2022-12-24T13:22:57.357Z,10.80
2022-12-24T13:25:46.841Z,10.90
2022-12-24T14:02:26.105Z,10.40
2022-12-24T14:04:56.904Z,10.30
2022-12-24T14:07:23.643Z,10.10
2022-12-24T14:09:51.939Z,10.10
2022-12-24T14:12:45.481Z,10.20
2022-12-24T14:15:49.336Z,10.20
2022-12-24T14:18:21.304Z,10.20
2022-12-24T14:20:54.609Z,10.20
2022-12-24T14:23:42.521Z,10.10
2022-12-24T14:26:17.725Z,10.10
2022-12-24T14:28:55.607Z,10.20
2022-12-24T14:31:22.578Z,10.20
2022-12-24T14:33:49.404Z,10.10
2022-12-24T14:36:21.537Z,10.00
2022-12-24T14:38:48.602Z,9.90
2022-12-24T14:41:22.799Z,10.00
2022-12-24T14:44:05.137Z,9.90
2022-12-24T14:46:46.120Z,10.00
2022-12-24T14:49:24.986Z,10.20
2022-12-24T14:52:30.759Z,10.10
2022-12-24T14:54:57.406Z,10.10
2022-12-24T14:57:26.301Z,10.20
2022-12-24T15:00:02.027Z,10.20
2022-12-24T15:02:49.973Z,10.10
2022-12-24T15:05:25.895Z,10.10
2022-12-24T15:08:04.417Z,9.90
2022-12-24T15:10:37.172Z,9.90
2022-12-24T15:13:27.141Z,9.90
2022-12-24T15:15:55.523Z,9.80
2022-12-24T15:18:26.425Z,9.80
2022-12-24T15:21:01.830Z,9.80
2022-12-24T15:23:37.734Z,9.70
2022-12-24T15:26:22.096Z,9.70
2022-12-24T15:28:49.361Z,9.70
2022-12-24T15:31:22.904Z,9.80
2022-12-24T15:33:53.184Z,10.10
2022-12-24T15:36:37.208Z,10.10
2022-12-24T15:39:13.901Z,10.10
2022-12-24T15:42:01.700Z,10.10
2022-12-24T15:44:40.850Z,10.00
2022-12-24T15:47:15.555Z,10.10
2022-12-24T15:49:48.094Z,10.00
2022-12-24T15:52:18.135Z,10.00
2022-12-24T16:18:16.517Z,9.70
2022-12-24T16:20:48.861Z,9.80
2022-12-24T16:23:21.759Z,9.90
2022-12-24T16:25:48.588Z,9.80
2022-12-24T16:28:21.994Z,9.70
2022-12-24T16:30:49.428Z,9.80
2022-12-24T16:33:19.237Z,9.90
2022-12-24T16:35:46.934Z,10.10
2022-12-24T16:38:13.986Z,10.20
2022-12-24T16:40:41.727Z,10.40
2022-12-24T16:43:28.408Z,10.60
2022-12-24T16:46:01.480Z,10.50
